world map with BWE marked

BWE - Airport

This information may not be accurate or current and is not valid for navigation or flight planning. No warranty of fitness for any purpose is made or implied.

flag of Lower Saxonyflag of Germany

Donate via PayPal

Additional information is available on the NEW Great Circle Mapper

Location
City:  Braunschweig, Lower Saxony, Germany
Name:Braunschweig-Wolfsburg Airport
ICAO / IATA:EDVE / BWE

Details
Type:Airport (Flugplatz, Airfield)
Use:Public/Civil
Latitude:52°19'09"N (52.319167)
Longitude:10°33'22"E (10.556111)
Elevation:295 ft (90 m)
Runways:2
Longest:7546 × 148 ft (2300 × 45 m)

Time
Timezone:UTC+1 (DST+4)
Local Time:

Weather
METAR:EDVE  041350Z 22009KT CAVOK 04/M03 Q1025

Related Locations
Nearby:
Farthest:CHT: 11761 mi / 18928 km
Waitangi [Tuuta], CIT, NZ

Find:

   beyond  
but within

Other Information
Maps:
Links:
Sources:

  


 


Great Circle Mapper   Great Circle Mapper
Great Circle Mapper FAQ   Great Circle Mapper FAQ
  Karl's Home Page
KLSē   KLSē Home
   GC on Facebook
Airlines of the World   Airlines of the World
Donate via PayPal


Copyright © 2004-2020, Karl L. Swartz. All rights reserved.
All trademarks mentioned herein belong to their respective owners.

Please see credits for attribution and copyright information.

Karl Swartz <karl@kls2.com>
  Powered by FreeBSD
Valid HTML 4.01!
Labeled with ICRA
hCard Microformat
Geo Microformat